Main page
METAR-TAF:

METAR-TAF

Airports :

Tillamook Airport

Tillamook, Oregon, United States

latitude: 45-25-06N, longitude: 123-48-52W, elevation: 36 ft

Current weather observation

The report was made 36 minutes ago, at 03:35 UTC
Wind 3 mph from the East
Temperature 50°F
Humidity 100%
Pressure 29.96 in. Hg
Visibility: 10 miles
Clear sky

METAR: KTMK 230335Z AUTO 08003KT 10SM CLR 10/10 A2996 RMK AO2

Time: 21:11 (04:11 UTC)


TAF: missing

Weather observations and forecasts of more than 4000 airports (METAR and TAF reports).

The available stations are represented by yellow and red dots on the map.

Hover mouse over dot to see the name of the station.

Then click to see weather observations and forecasts.

To change the map : click on the green buttons with a black cross to zoom in, on the green button with a dash to zoom out, or on the green arrows for adjacent maps.


METAR-TAF: